sensor_id;sensor_type;location;lat;lon;timestamp;pressure;altitude;pressure_sealevel;temperature;humidity
14790;BME280;7486;51.010;10.366;2023-01-30T00:00:49;98530.53;;;-4.35;81.28
14790;BME280;7486;51.010;10.366;2023-01-30T00:03:16;98512.16;;;-4.43;81.71
14790;BME280;7486;51.010;10.366;2023-01-30T00:05:44;98521.97;;;-4.48;82.37
14790;BME280;7486;51.010;10.366;2023-01-30T00:08:11;98514.22;;;-4.48;82.30
14790;BME280;7486;51.010;10.366;2023-01-30T00:10:37;98481.34;;;-4.46;82.76
14790;BME280;7486;51.010;10.366;2023-01-30T00:13:05;98466.97;;;-4.50;82.80
14790;BME280;7486;51.010;10.366;2023-01-30T00:15:32;98440.31;;;-4.76;84.69
14790;BME280;7486;51.010;10.366;2023-01-30T00:17:59;98441.38;;;-4.91;85.32
14790;BME280;7486;51.010;10.366;2023-01-30T00:20:26;98448.81;;;-4.99;85.81
14790;BME280;7486;51.010;10.366;2023-01-30T00:22:53;98460.38;;;-4.79;86.10
14790;BME280;7486;51.010;10.366;2023-01-30T00:25:27;98425.16;;;-4.80;85.54
14790;BME280;7486;51.010;10.366;2023-01-30T00:27:54;98455.31;;;-4.68;85.47
14790;BME280;7486;51.010;10.366;2023-01-30T00:30:21;98433.41;;;-4.75;85.59
14790;BME280;7486;51.010;10.366;2023-01-30T00:32:53;98430.06;;;-4.65;85.30
14790;BME280;7486;51.010;10.366;2023-01-30T00:35:20;98411.19;;;-4.78;85.30
14790;BME280;7486;51.010;10.366;2023-01-30T00:37:46;98414.25;;;-4.60;85.32
14790;BME280;7486;51.010;10.366;2023-01-30T00:40:13;98396.72;;;-4.80;85.42
14790;BME280;7486;51.010;10.366;2023-01-30T00:42:40;98376.88;;;-4.80;85.50
14790;BME280;7486;51.010;10.366;2023-01-30T00:45:10;98364.19;;;-4.95;86.10
14790;BME280;7486;51.010;10.366;2023-01-30T00:47:37;98342.41;;;-5.04;86.61
14790;BME280;7486;51.010;10.366;2023-01-30T00:50:04;98317.38;;;-4.91;86.45
14790;BME280;7486;51.010;10.366;2023-01-30T00:52:31;98311.28;;;-5.03;86.52
14790;BME280;7486;51.010;10.366;2023-01-30T00:54:58;98302.13;;;-5.19;86.85
14790;BME280;7486;51.010;10.366;2023-01-30T00:57:25;98304.63;;;-5.30;87.63
14790;BME280;7486;51.010;10.366;2023-01-30T00:59:51;98308.38;;;-5.34;87.88
14790;BME280;7486;51.010;10.366;2023-01-30T01:02:18;98338.19;;;-5.30;87.71
14790;BME280;7486;51.010;10.366;2023-01-30T01:04:45;98350.56;;;-5.10;87.13
14790;BME280;7486;51.010;10.366;2023-01-30T01:07:13;98337.38;;;-5.18;86.98
14790;BME280;7486;51.010;10.366;2023-01-30T01:09:40;98293.91;;;-5.24;86.75
14790;BME280;7486;51.010;10.366;2023-01-30T01:12:08;98329.72;;;-5.07;86.44
14790;BME280;7486;51.010;10.366;2023-01-30T01:14:35;98314.94;;;-5.18;86.99
14790;BME280;7486;51.010;10.366;2023-01-30T01:17:02;98345.41;;;-4.97;86.28
14790;BME280;7486;51.010;10.366;2023-01-30T01:19:29;98315.97;;;-5.08;86.50
14790;BME280;7486;51.010;10.366;2023-01-30T01:21:56;98338.25;;;-4.94;86.39
14790;BME280;7486;51.010;10.366;2023-01-30T01:24:23;98330.72;;;-5.10;86.89
14790;BME280;7486;51.010;10.366;2023-01-30T01:26:49;98366.16;;;-4.86;86.81
14790;BME280;7486;51.010;10.366;2023-01-30T01:29:16;98351.22;;;-4.70;85.60
14790;BME280;7486;51.010;10.366;2023-01-30T01:31:43;98357.28;;;-4.59;85.31
14790;BME280;7486;51.010;10.366;2023-01-30T01:34:10;98355.97;;;-4.64;85.56
14790;BME280;7486;51.010;10.366;2023-01-30T01:36:37;98333.44;;;-4.75;85.33
14790;BME280;7486;51.010;10.366;2023-01-30T01:39:20;98372.94;;;-4.73;86.53
14790;BME280;7486;51.010;10.366;2023-01-30T01:41:49;98353.06;;;-4.60;86.36
14790;BME280;7486;51.010;10.366;2023-01-30T01:44:15;98350.97;;;-4.55;86.29
14790;BME280;7486;51.010;10.366;2023-01-30T01:46:55;98331.19;;;-4.43;85.64
14790;BME280;7486;51.010;10.366;2023-01-30T01:49:29;98329.88;;;-4.25;84.49
14790;BME280;7486;51.010;10.366;2023-01-30T01:54:30;98302.38;;;-4.50;86.20
14790;BME280;7486;51.010;10.366;2023-01-30T01:57:01;98281.19;;;-4.55;85.59
14790;BME280;7486;51.010;10.366;2023-01-30T01:59:34;98286.63;;;-4.46;85.53
14790;BME280;7486;51.010;10.366;2023-01-30T02:02:08;98298.03;;;-4.14;84.84
14790;BME280;7486;51.010;10.366;2023-01-30T02:04:38;98278.78;;;-4.10;84.66
14790;BME280;7486;51.010;10.366;2023-01-30T02:07:06;98268.38;;;-4.32;85.45
14790;BME280;7486;51.010;10.366;2023-01-30T02:09:34;98287.91;;;-4.17;84.42
14790;BME280;7486;51.010;10.366;2023-01-30T02:12:02;98276.88;;;-4.19;84.81
14790;BME280;7486;51.010;10.366;2023-01-30T02:14:32;98278.31;;;-4.04;84.47
14790;BME280;7486;51.010;10.366;2023-01-30T02:16:59;98274.09;;;-4.05;84.41
14790;BME280;7486;51.010;10.366;2023-01-30T02:30:50;98251.66;;;-4.39;86.80
14790;BME280;7486;51.010;10.366;2023-01-30T02:42:21;98216.84;;;-4.46;88.75
14790;BME280;7486;51.010;10.366;2023-01-30T02:48:05;98208.84;;;-4.43;88.82
14790;BME280;7486;51.010;10.366;2023-01-30T02:53:04;98194.25;;;-4.10;87.55
14790;BME280;7486;51.010;10.366;2023-01-30T02:55:32;98182.63;;;-4.15;87.76
14790;BME280;7486;51.010;10.366;2023-01-30T02:58:00;98176.75;;;-4.06;87.39
14790;BME280;7486;51.010;10.366;2023-01-30T03:01:01;98169.69;;;-3.93;86.98
14790;BME280;7486;51.010;10.366;2023-01-30T03:06:36;98179.56;;;-3.87;86.83
14790;BME280;7486;51.010;10.366;2023-01-30T03:14:21;98154.91;;;-3.91;88.20
14790;BME280;7486;51.010;10.366;2023-01-30T03:16:54;98137.47;;;-3.89;88.43
14790;BME280;7486;51.010;10.366;2023-01-30T03:19:23;98126.19;;;-3.88;88.79
14790;BME280;7486;51.010;10.366;2023-01-30T03:21:49;98138.91;;;-3.85;89.05
14790;BME280;7486;51.010;10.366;2023-01-30T03:24:16;98127.72;;;-3.97;90.15
14790;BME280;7486;51.010;10.366;2023-01-30T03:26:51;98140.06;;;-3.78;89.78
14790;BME280;7486;51.010;10.366;2023-01-30T03:29:20;98124.09;;;-3.94;90.12
14790;BME280;7486;51.010;10.366;2023-01-30T03:31:47;98125.00;;;-4.06;90.78
14790;BME280;7486;51.010;10.366;2023-01-30T03:34:14;98130.66;;;-4.01;91.64
14790;BME280;7486;51.010;10.366;2023-01-30T03:36:41;98136.88;;;-3.92;91.97
14790;BME280;7486;51.010;10.366;2023-01-30T03:39:07;98131.94;;;-3.73;90.85
14790;BME280;7486;51.010;10.366;2023-01-30T03:41:34;98133.13;;;-3.88;91.50
14790;BME280;7486;51.010;10.366;2023-01-30T03:44:01;98109.25;;;-4.03;92.02
14790;BME280;7486;51.010;10.366;2023-01-30T03:46:28;98125.97;;;-3.85;91.74
14790;BME280;7486;51.010;10.366;2023-01-30T03:48:55;98134.41;;;-3.61;90.81
14790;BME280;7486;51.010;10.366;2023-01-30T03:51:22;98126.91;;;-3.75;91.24
14790;BME280;7486;51.010;10.366;2023-01-30T03:53:49;98123.13;;;-3.60;91.07
14790;BME280;7486;51.010;10.366;2023-01-30T03:56:15;98121.22;;;-3.58;90.71
14790;BME280;7486;51.010;10.366;2023-01-30T03:58:42;98082.41;;;-3.69;91.08
14790;BME280;7486;51.010;10.366;2023-01-30T04:01:16;98105.56;;;-3.45;90.38
14790;BME280;7486;51.010;10.366;2023-01-30T04:03:43;98107.34;;;-3.57;91.85
14790;BME280;7486;51.010;10.366;2023-01-30T04:06:09;98112.19;;;-3.63;91.92
14790;BME280;7486;51.010;10.366;2023-01-30T04:08:36;98113.41;;;-3.35;91.18
14790;BME280;7486;51.010;10.366;2023-01-30T04:11:04;98096.69;;;-3.31;90.67
14790;BME280;7486;51.010;10.366;2023-01-30T04:13:31;98089.38;;;-3.26;90.06
14790;BME280;7486;51.010;10.366;2023-01-30T04:16:14;98096.50;;;-3.08;88.94
14790;BME280;7486;51.010;10.366;2023-01-30T04:19:00;98094.53;;;-3.15;89.15
14790;BME280;7486;51.010;10.366;2023-01-30T04:21:30;98091.47;;;-3.20;89.37
14790;BME280;7486;51.010;10.366;2023-01-30T04:23:56;98085.16;;;-3.38;90.74
14790;BME280;7486;51.010;10.366;2023-01-30T04:26:24;98096.09;;;-3.24;89.94
14790;BME280;7486;51.010;10.366;2023-01-30T04:28:50;98077.41;;;-3.38;89.49
14790;BME280;7486;51.010;10.366;2023-01-30T04:31:17;98095.47;;;-3.16;90.26
14790;BME280;7486;51.010;10.366;2023-01-30T04:34:02;98096.69;;;-2.68;88.55
14790;BME280;7486;51.010;10.366;2023-01-30T04:36:29;98097.09;;;-2.83;87.79
14790;BME280;7486;51.010;10.366;2023-01-30T04:38:56;98084.94;;;-3.04;88.63
14790;BME280;7486;51.010;10.366;2023-01-30T04:41:24;98093.00;;;-3.18;89.56
14790;BME280;7486;51.010;10.366;2023-01-30T04:43:55;98090.31;;;-3.16;90.56
14790;BME280;7486;51.010;10.366;2023-01-30T04:46:33;98073.31;;;-3.09;89.14
14790;BME280;7486;51.010;10.366;2023-01-30T04:49:00;98066.03;;;-3.15;89.64
14790;BME280;7486;51.010;10.366;2023-01-30T04:51:27;98068.41;;;-3.23;90.42
14790;BME280;7486;51.010;10.366;2023-01-30T04:54:19;98062.56;;;-3.05;90.02
14790;BME280;7486;51.010;10.366;2023-01-30T04:56:46;98044.44;;;-3.05;89.32
14790;BME280;7486;51.010;10.366;2023-01-30T04:59:14;98017.06;;;-3.18;89.30
14790;BME280;7486;51.010;10.366;2023-01-30T05:01:43;98037.22;;;-3.01;89.80
14790;BME280;7486;51.010;10.366;2023-01-30T05:04:09;98014.63;;;-2.99;89.25
14790;BME280;7486;51.010;10.366;2023-01-30T05:06:36;98021.69;;;-2.80;88.60
14790;BME280;7486;51.010;10.366;2023-01-30T05:09:03;98002.75;;;-2.81;88.11
14790;BME280;7486;51.010;10.366;2023-01-30T05:11:31;98002.88;;;-3.03;88.81
14790;BME280;7486;51.010;10.366;2023-01-30T05:13:58;97981.94;;;-3.11;89.26
14790;BME280;7486;51.010;10.366;2023-01-30T05:16:25;97978.28;;;-3.09;89.95
14790;BME280;7486;51.010;10.366;2023-01-30T05:18:52;97992.25;;;-3.00;89.76
14790;BME280;7486;51.010;10.366;2023-01-30T05:21:24;97977.31;;;-3.08;90.56
14790;BME280;7486;51.010;10.366;2023-01-30T05:23:51;97985.59;;;-2.93;90.19
14790;BME280;7486;51.010;10.366;2023-01-30T05:26:18;97992.59;;;-3.05;91.22
14790;BME280;7486;51.010;10.366;2023-01-30T05:28:53;97929.63;;;-3.26;90.84
14790;BME280;7486;51.010;10.366;2023-01-30T05:31:21;97985.41;;;-3.01;90.69
14790;BME280;7486;51.010;10.366;2023-01-30T05:33:50;97959.94;;;-3.37;92.53
14790;BME280;7486;51.010;10.366;2023-01-30T05:36:18;97951.16;;;-3.25;92.43
14790;BME280;7486;51.010;10.366;2023-01-30T05:38:45;97953.94;;;-3.17;92.32
14790;BME280;7486;51.010;10.366;2023-01-30T05:41:14;97953.19;;;-3.08;91.66
14790;BME280;7486;51.010;10.366;2023-01-30T05:43:41;97923.63;;;-3.26;92.03
14790;BME280;7486;51.010;10.366;2023-01-30T05:46:09;97889.88;;;-3.77;92.77
14790;BME280;7486;51.010;10.366;2023-01-30T05:48:37;97939.75;;;-3.23;92.88
14790;BME280;7486;51.010;10.366;2023-01-30T05:51:04;97936.28;;;-3.33;93.04
14790;BME280;7486;51.010;10.366;2023-01-30T05:53:32;97940.63;;;-3.33;93.35
14790;BME280;7486;51.010;10.366;2023-01-30T05:56:02;97925.47;;;-3.17;93.13
14790;BME280;7486;51.010;10.366;2023-01-30T05:58:30;97933.94;;;-3.15;92.21
14790;BME280;7486;51.010;10.366;2023-01-30T06:01:05;97945.50;;;-3.19;92.45
14790;BME280;7486;51.010;10.366;2023-01-30T06:03:32;97920.34;;;-3.28;93.07
14790;BME280;7486;51.010;10.366;2023-01-30T06:06:03;97895.81;;;-3.24;92.43
14790;BME280;7486;51.010;10.366;2023-01-30T06:08:32;97936.06;;;-3.00;92.30
14790;BME280;7486;51.010;10.366;2023-01-30T06:11:03;97922.09;;;-3.08;91.65
14790;BME280;7486;51.010;10.366;2023-01-30T06:13:30;97951.81;;;-3.12;92.86
14790;BME280;7486;51.010;10.366;2023-01-30T06:15:57;97946.69;;;-3.03;93.05
14790;BME280;7486;51.010;10.366;2023-01-30T06:18:24;97945.47;;;-2.78;92.06
14790;BME280;7486;51.010;10.366;2023-01-30T06:20:52;97947.69;;;-2.64;90.84
14790;BME280;7486;51.010;10.366;2023-01-30T06:23:20;97931.19;;;-2.93;91.14
14790;BME280;7486;51.010;10.366;2023-01-30T06:25:48;97950.00;;;-2.91;92.25
14790;BME280;7486;51.010;10.366;2023-01-30T06:28:16;97959.63;;;-2.82;92.42
14790;BME280;7486;51.010;10.366;2023-01-30T06:30:43;97931.69;;;-2.78;91.81
14790;BME280;7486;51.010;10.366;2023-01-30T06:33:10;97910.53;;;-3.04;92.12
14790;BME280;7486;51.010;10.366;2023-01-30T06:35:38;97953.97;;;-2.66;91.85
14790;BME280;7486;51.010;10.366;2023-01-30T06:38:05;97942.50;;;-2.64;91.21
14790;BME280;7486;51.010;10.366;2023-01-30T06:40:32;97947.94;;;-2.67;90.78
14790;BME280;7486;51.010;10.366;2023-01-30T06:42:59;97958.84;;;-2.73;91.55
14790;BME280;7486;51.010;10.366;2023-01-30T06:45:25;97965.06;;;-2.85;93.21
14790;BME280;7486;51.010;10.366;2023-01-30T06:47:53;97966.28;;;-2.89;93.73
14790;BME280;7486;51.010;10.366;2023-01-30T06:50:23;97969.78;;;-2.69;93.41
14790;BME280;7486;51.010;10.366;2023-01-30T06:52:51;97910.16;;;-3.00;93.03
14790;BME280;7486;51.010;10.366;2023-01-30T06:55:21;97959.13;;;-2.36;93.08
14790;BME280;7486;51.010;10.366;2023-01-30T06:57:49;97949.84;;;-2.38;91.08
14790;BME280;7486;51.010;10.366;2023-01-30T07:00:25;97957.00;;;-2.21;90.98
14790;BME280;7486;51.010;10.366;2023-01-30T07:02:52;97945.13;;;-2.24;90.68
14790;BME280;7486;51.010;10.366;2023-01-30T07:05:19;97938.13;;;-2.33;90.24
14790;BME280;7486;51.010;10.366;2023-01-30T07:07:46;97926.47;;;-2.48;90.94
14790;BME280;7486;51.010;10.366;2023-01-30T07:10:12;97946.41;;;-2.49;91.36
14790;BME280;7486;51.010;10.366;2023-01-30T07:12:39;97945.31;;;-2.46;91.86
14790;BME280;7486;51.010;10.366;2023-01-30T07:15:06;97904.50;;;-2.84;91.99
14790;BME280;7486;51.010;10.366;2023-01-30T07:17:33;97935.69;;;-2.65;92.08
14790;BME280;7486;51.010;10.366;2023-01-30T07:20:00;97942.13;;;-2.59;93.21
14790;BME280;7486;51.010;10.366;2023-01-30T07:22:26;97935.44;;;-2.62;93.43
14790;BME280;7486;51.010;10.366;2023-01-30T07:24:53;97909.69;;;-2.54;93.37
14790;BME280;7486;51.010;10.366;2023-01-30T07:27:20;97932.63;;;-2.49;93.44
14790;BME280;7486;51.010;10.366;2023-01-30T07:29:47;97926.78;;;-2.41;92.56
14790;BME280;7486;51.010;10.366;2023-01-30T07:32:15;97878.38;;;-3.02;93.79
14790;BME280;7486;51.010;10.366;2023-01-30T07:34:42;97929.69;;;-2.65;93.65
14790;BME280;7486;51.010;10.366;2023-01-30T07:37:09;97925.84;;;-2.71;94.15
14790;BME280;7486;51.010;10.366;2023-01-30T07:39:35;97912.78;;;-2.60;93.93
14790;BME280;7486;51.010;10.366;2023-01-30T07:42:03;97925.75;;;-2.60;93.23
14790;BME280;7486;51.010;10.366;2023-01-30T07:44:30;97897.94;;;-2.58;93.41
14790;BME280;7486;51.010;10.366;2023-01-30T07:46:56;97938.31;;;-2.55;92.97
14790;BME280;7486;51.010;10.366;2023-01-30T07:49:23;97912.16;;;-2.42;93.22
14790;BME280;7486;51.010;10.366;2023-01-30T07:51:50;97891.59;;;-2.34;91.75
14790;BME280;7486;51.010;10.366;2023-01-30T07:54:17;97896.47;;;-2.41;92.17
14790;BME280;7486;51.010;10.366;2023-01-30T07:56:44;97910.63;;;-2.55;92.85
14790;BME280;7486;51.010;10.366;2023-01-30T07:59:11;97905.47;;;-2.45;93.12
14790;BME280;7486;51.010;10.366;2023-01-30T08:01:37;97853.84;;;-2.67;92.50
14790;BME280;7486;51.010;10.366;2023-01-30T08:04:04;97893.44;;;-2.56;92.90
14790;BME280;7486;51.010;10.366;2023-01-30T08:06:31;97903.75;;;-2.65;93.82
14790;BME280;7486;51.010;10.366;2023-01-30T08:08:58;97879.38;;;-2.93;95.15
14790;BME280;7486;51.010;10.366;2023-01-30T08:11:24;97900.16;;;-2.74;95.76
14790;BME280;7486;51.010;10.366;2023-01-30T08:13:51;97881.44;;;-2.87;95.15
14790;BME280;7486;51.010;10.366;2023-01-30T08:16:18;97892.72;;;-2.67;94.96
14790;BME280;7486;51.010;10.366;2023-01-30T08:18:45;97896.81;;;-2.65;94.53
14790;BME280;7486;51.010;10.366;2023-01-30T08:21:11;97877.47;;;-2.61;94.66
14790;BME280;7486;51.010;10.366;2023-01-30T08:23:38;97873.94;;;-2.80;94.87
14790;BME280;7486;51.010;10.366;2023-01-30T08:26:05;97901.34;;;-2.57;94.47
14790;BME280;7486;51.010;10.366;2023-01-30T08:28:32;97914.59;;;-2.51;94.57
14790;BME280;7486;51.010;10.366;2023-01-30T08:30:58;97905.59;;;-2.47;94.42
14790;BME280;7486;51.010;10.366;2023-01-30T08:33:25;97890.28;;;-2.50;93.92
14790;BME280;7486;51.010;10.366;2023-01-30T08:35:52;97898.63;;;-2.46;93.98
14790;BME280;7486;51.010;10.366;2023-01-30T08:38:19;97917.06;;;-2.39;93.80
14790;BME280;7486;51.010;10.366;2023-01-30T08:40:45;97913.00;;;-2.32;93.53
14790;BME280;7486;51.010;10.366;2023-01-30T08:43:12;97897.78;;;-2.56;93.95
14790;BME280;7486;51.010;10.366;2023-01-30T08:45:39;97907.81;;;-2.32;93.23
14790;BME280;7486;51.010;10.366;2023-01-30T08:48:06;97927.56;;;-2.51;94.25
14790;BME280;7486;51.010;10.366;2023-01-30T08:50:33;97901.97;;;-2.34;94.31
14790;BME280;7486;51.010;10.366;2023-01-30T08:53:05;97866.00;;;-2.49;93.90
14790;BME280;7486;51.010;10.366;2023-01-30T08:55:32;97900.56;;;-2.38;94.54
14790;BME280;7486;51.010;10.366;2023-01-30T08:57:58;97899.22;;;-2.33;94.64
14790;BME280;7486;51.010;10.366;2023-01-30T09:00:26;97893.78;;;-2.30;94.44
14790;BME280;7486;51.010;10.366;2023-01-30T09:02:54;97889.88;;;-1.96;94.04
14790;BME280;7486;51.010;10.366;2023-01-30T09:05:22;97905.06;;;-1.72;92.27
14790;BME280;7486;51.010;10.366;2023-01-30T09:07:49;97901.38;;;-1.79;91.54
14790;BME280;7486;51.010;10.366;2023-01-30T09:10:17;97897.78;;;-1.87;91.81
14790;BME280;7486;51.010;10.366;2023-01-30T09:12:44;97890.00;;;-1.87;91.66
14790;BME280;7486;51.010;10.366;2023-01-30T09:15:11;97895.47;;;-1.90;91.78
14790;BME280;7486;51.010;10.366;2023-01-30T09:17:38;97895.75;;;-1.94;91.65
14790;BME280;7486;51.010;10.366;2023-01-30T09:20:06;97870.19;;;-2.17;92.48
14790;BME280;7486;51.010;10.366;2023-01-30T09:22:33;97914.06;;;-1.76;91.57
14790;BME280;7486;51.010;10.366;2023-01-30T09:24:59;97905.47;;;-1.86;90.67
14790;BME280;7486;51.010;10.366;2023-01-30T09:27:26;97906.94;;;-1.93;91.39
14790;BME280;7486;51.010;10.366;2023-01-30T09:29:53;97923.06;;;-1.89;91.41
14790;BME280;7486;51.010;10.366;2023-01-30T09:32:20;97922.13;;;-1.60;90.17
14790;BME280;7486;51.010;10.366;2023-01-30T09:34:47;97915.72;;;-1.65;89.60
14790;BME280;7486;51.010;10.366;2023-01-30T09:37:15;97916.38;;;-1.73;90.24
14790;BME280;7486;51.010;10.366;2023-01-30T09:39:42;97903.81;;;-1.68;90.20
14790;BME280;7486;51.010;10.366;2023-01-30T09:48:19;97918.44;;;-1.86;91.50
14790;BME280;7486;51.010;10.366;2023-01-30T09:53:54;97907.34;;;-1.88;90.94
14790;BME280;7486;51.010;10.366;2023-01-30T09:56:30;97916.66;;;-1.76;91.27
14790;BME280;7486;51.010;10.366;2023-01-30T09:58:58;97928.03;;;-1.58;90.15
14790;BME280;7486;51.010;10.366;2023-01-30T10:01:43;97929.22;;;-1.43;90.18
14790;BME280;7486;51.010;10.366;2023-01-30T10:04:36;97938.38;;;-1.67;90.13
14790;BME280;7486;51.010;10.366;2023-01-30T10:07:21;97952.19;;;-1.28;89.21
14790;BME280;7486;51.010;10.366;2023-01-30T10:21:13;97981.75;;;-1.10;88.42
14790;BME280;7486;51.010;10.366;2023-01-30T10:24:04;97962.97;;;-1.23;89.55
14790;BME280;7486;51.010;10.366;2023-01-30T10:26:35;97971.75;;;-1.24;90.21
14790;BME280;7486;51.010;10.366;2023-01-30T10:31:45;97917.84;;;-1.03;88.77
14790;BME280;7486;51.010;10.366;2023-01-30T10:34:30;97974.31;;;-0.96;89.81
14790;BME280;7486;51.010;10.366;2023-01-30T10:37:07;97973.59;;;-0.69;88.38
14790;BME280;7486;51.010;10.366;2023-01-30T10:39:49;97973.31;;;-0.66;88.31
14790;BME280;7486;51.010;10.366;2023-01-30T10:42:35;97976.19;;;-0.69;89.13
14790;BME280;7486;51.010;10.366;2023-01-30T10:45:20;97984.88;;;-0.97;89.76
14790;BME280;7486;51.010;10.366;2023-01-30T10:53:23;97982.22;;;-0.78;90.20
14790;BME280;7486;51.010;10.366;2023-01-30T10:56:16;97983.72;;;-0.66;89.35
14790;BME280;7486;51.010;10.366;2023-01-30T11:01:43;97981.81;;;-0.73;89.51
14790;BME280;7486;51.010;10.366;2023-01-30T11:04:35;97984.78;;;-0.59;89.51
14790;BME280;7486;51.010;10.366;2023-01-30T11:07:05;97986.84;;;-0.72;89.42
14790;BME280;7486;51.010;10.366;2023-01-30T11:09:44;97975.03;;;-0.57;89.61
14790;BME280;7486;51.010;10.366;2023-01-30T11:12:11;97980.63;;;-0.15;88.71
14790;BME280;7486;51.010;10.366;2023-01-30T11:14:58;97976.44;;;-0.25;87.60
14790;BME280;7486;51.010;10.366;2023-01-30T11:17:36;97975.78;;;-0.00;87.96
14790;BME280;7486;51.010;10.366;2023-01-30T11:20:16;97974.56;;;-0.06;87.14
14790;BME280;7486;51.010;10.366;2023-01-30T11:22:50;97933.44;;;-0.29;86.53
14790;BME280;7486;51.010;10.366;2023-01-30T11:25:21;97964.94;;;-0.60;87.86
14790;BME280;7486;51.010;10.366;2023-01-30T11:27:59;97946.06;;;-0.62;88.87
14790;BME280;7486;51.010;10.366;2023-01-30T11:30:28;97942.31;;;-0.50;87.92
14790;BME280;7486;51.010;10.366;2023-01-30T11:33:35;97937.97;;;-0.59;88.99
14790;BME280;7486;51.010;10.366;2023-01-30T11:36:04;97929.41;;;-0.51;87.77
14790;BME280;7486;51.010;10.366;2023-01-30T11:38:36;97950.31;;;-0.33;88.50
14790;BME280;7486;51.010;10.366;2023-01-30T11:41:04;97931.13;;;-0.05;89.10
14790;BME280;7486;51.010;10.366;2023-01-30T11:43:37;97925.44;;;-0.18;89.22
14790;BME280;7486;51.010;10.366;2023-01-30T11:46:08;97933.84;;;-0.24;88.46
14790;BME280;7486;51.010;10.366;2023-01-30T11:48:46;97926.59;;;-0.30;87.83
14790;BME280;7486;51.010;10.366;2023-01-30T11:51:35;97923.50;;;-0.44;88.52
14790;BME280;7486;51.010;10.366;2023-01-30T11:54:10;97925.75;;;-0.21;89.30
14790;BME280;7486;51.010;10.366;2023-01-30T11:56:41;97922.91;;;-0.10;87.80
14790;BME280;7486;51.010;10.366;2023-01-30T12:01:45;97877.06;;;-0.38;87.42
14790;BME280;7486;51.010;10.366;2023-01-30T12:04:11;97913.78;;;-0.14;87.46
14790;BME280;7486;51.010;10.366;2023-01-30T12:06:41;97910.97;;;-0.30;88.41
14790;BME280;7486;51.010;10.366;2023-01-30T12:09:33;97915.88;;;-0.18;88.78
14790;BME280;7486;51.010;10.366;2023-01-30T12:12:01;97917.97;;;-0.04;88.19
14790;BME280;7486;51.010;10.366;2023-01-30T12:14:38;97848.66;;;-0.50;87.25
14790;BME280;7486;51.010;10.366;2023-01-30T12:17:19;97909.59;;;-0.25;87.97
14790;BME280;7486;51.010;10.366;2023-01-30T12:20:12;97918.94;;;-0.05;87.39
14790;BME280;7486;51.010;10.366;2023-01-30T12:22:47;97889.63;;;-0.34;87.94
14790;BME280;7486;51.010;10.366;2023-01-30T12:25:24;97913.78;;;-0.14;88.75
14790;BME280;7486;51.010;10.366;2023-01-30T12:28:00;97865.22;;;-0.51;89.16
14790;BME280;7486;51.010;10.366;2023-01-30T12:30:46;97904.78;;;-0.02;88.82
14790;BME280;7486;51.010;10.366;2023-01-30T12:33:15;97902.13;;;0.25;88.05
14790;BME280;7486;51.010;10.366;2023-01-30T12:39:03;97884.50;;;0.37;86.05
14790;BME280;7486;51.010;10.366;2023-01-30T12:49:24;97862.34;;;0.58;84.04
14790;BME280;7486;51.010;10.366;2023-01-30T12:51:59;97866.16;;;0.64;83.24
14790;BME280;7486;51.010;10.366;2023-01-30T12:54:43;97864.59;;;0.71;83.07
14790;BME280;7486;51.010;10.366;2023-01-30T13:14:09;97887.69;;;0.48;82.04
14790;BME280;7486;51.010;10.366;2023-01-30T13:19:23;97916.66;;;0.10;82.88
14790;BME280;7486;51.010;10.366;2023-01-30T13:22:27;97903.47;;;0.29;83.43
14790;BME280;7486;51.010;10.366;2023-01-30T13:28:10;97896.31;;;-0.04;82.13
14790;BME280;7486;51.010;10.366;2023-01-30T13:30:39;97885.31;;;0.02;82.01
14790;BME280;7486;51.010;10.366;2023-01-30T13:33:27;97900.09;;;0.01;82.64
14790;BME280;7486;51.010;10.366;2023-01-30T13:36:05;97867.00;;;-0.06;81.91
14790;BME280;7486;51.010;10.366;2023-01-30T13:38:40;97915.28;;;0.41;81.51
14790;BME280;7486;51.010;10.366;2023-01-30T13:41:11;97922.84;;;0.27;81.38
14790;BME280;7486;51.010;10.366;2023-01-30T13:43:43;97948.56;;;0.12;82.59
14790;BME280;7486;51.010;10.366;2023-01-30T13:46:17;97947.81;;;0.02;83.71
14790;BME280;7486;51.010;10.366;2023-01-30T13:49:04;97897.66;;;-0.27;84.98
14790;BME280;7486;51.010;10.366;2023-01-30T13:51:49;97917.47;;;-0.17;85.84
14790;BME280;7486;51.010;10.366;2023-01-30T13:55:13;97916.94;;;-0.20;86.93
14790;BME280;7486;51.010;10.366;2023-01-30T13:57:57;97929.38;;;0.13;85.00
14790;BME280;7486;51.010;10.366;2023-01-30T14:08:47;97926.41;;;0.43;81.38
14790;BME280;7486;51.010;10.366;2023-01-30T14:14:00;97924.66;;;0.70;80.22
14790;BME280;7486;51.010;10.366;2023-01-30T14:16:42;97918.84;;;0.93;78.88
14790;BME280;7486;51.010;10.366;2023-01-30T14:22:24;97938.44;;;0.80;78.82
14790;BME280;7486;51.010;10.366;2023-01-30T14:38:27;97937.91;;;0.76;72.90
14790;BME280;7486;51.010;10.366;2023-01-30T14:45:55;97943.72;;;0.70;72.17
14790;BME280;7486;51.010;10.366;2023-01-30T14:48:30;97940.19;;;0.89;72.40
14790;BME280;7486;51.010;10.366;2023-01-30T15:07:26;98010.66;;;0.34;77.27
14790;BME280;7486;51.010;10.366;2023-01-30T15:10:24;98029.16;;;0.14;77.79
14790;BME280;7486;51.010;10.366;2023-01-30T15:21:48;98046.03;;;0.37;79.41
14790;BME280;7486;51.010;10.366;2023-01-30T15:27:21;98040.81;;;0.37;79.12
14790;BME280;7486;51.010;10.366;2023-01-30T15:32:43;98057.22;;;0.47;78.61
14790;BME280;7486;51.010;10.366;2023-01-30T15:37:48;98062.13;;;0.50;77.04
14790;BME280;7486;51.010;10.366;2023-01-30T15:45:39;98068.91;;;0.60;74.85
14790;BME280;7486;51.010;10.366;2023-01-30T15:51:03;98061.19;;;0.24;75.46
14790;BME280;7486;51.010;10.366;2023-01-30T15:53:35;98109.38;;;0.37;75.39
14790;BME280;7486;51.010;10.366;2023-01-30T15:56:06;98109.94;;;0.31;75.04
14790;BME280;7486;51.010;10.366;2023-01-30T15:58:40;98126.06;;;0.17;75.58
14790;BME280;7486;51.010;10.366;2023-01-30T16:01:08;98122.25;;;0.39;74.86
14790;BME280;7486;51.010;10.366;2023-01-30T16:03:40;98136.97;;;0.30;74.67
14790;BME280;7486;51.010;10.366;2023-01-30T16:06:21;98143.13;;;0.29;75.24
14790;BME280;7486;51.010;10.366;2023-01-30T16:08:59;98147.38;;;0.30;73.84
14790;BME280;7486;51.010;10.366;2023-01-30T16:13:59;98180.13;;;0.33;74.36
14790;BME280;7486;51.010;10.366;2023-01-30T16:16:26;98170.03;;;0.10;75.27
14790;BME280;7486;51.010;10.366;2023-01-30T16:18:57;98172.22;;;0.15;75.16
14790;BME280;7486;51.010;10.366;2023-01-30T16:21:30;98172.69;;;-0.09;76.18
14790;BME280;7486;51.010;10.366;2023-01-30T16:24:19;98187.47;;;0.10;75.53